Terminal Aerodrome Forecast
Issued by NWS Spokane, WA

Home | Current Version | Previous Version | Text Only | Print | Product List | Glossary On
Versions: 1 2 3 4 5 6 7 8 9 10 11 12 13 14 15 16 17
000
FTUS46 KOTX 171510 AAA
TAFGEG
TAF AMD
KGEG 171510Z 1715/1812 17007KT P6SM -RA BKN008 OVC015
     FM171700 20011KT P6SM -RA BKN018 OVC025
     FM172300 20011KT 5SM RA SCT010 OVC018
     FM180600 21016KT P6SM -SHRA BKN012
     FM181000 21021G30KT P6SM VCSH SCT012 BKN035=

USA.gov is the U.S. government's official web portal to all federal, state and local government web resources and services.